sensor_id;sensor_type;location;lat;lon;timestamp;pressure;altitude;pressure_sealevel;temperature;humidity
64889;BME280;51386;53.082;8.816;2023-05-18T00:00:09;102780.44;;;16.11;36.98
64889;BME280;51386;53.082;8.816;2023-05-18T00:02:40;102776.44;;;16.07;37.35
64889;BME280;51386;53.082;8.816;2023-05-18T00:05:08;102777.75;;;16.03;37.38
64889;BME280;51386;53.082;8.816;2023-05-18T00:07:37;102781.06;;;15.97;37.16
64889;BME280;51386;53.082;8.816;2023-05-18T00:10:07;102778.72;;;15.94;37.48
64889;BME280;51386;53.082;8.816;2023-05-18T00:12:34;102785.47;;;15.89;37.61
64889;BME280;51386;53.082;8.816;2023-05-18T00:15:01;102786.50;;;15.88;37.75
64889;BME280;51386;53.082;8.816;2023-05-18T00:17:29;102785.66;;;15.87;37.69
64889;BME280;51386;53.082;8.816;2023-05-18T00:19:57;102788.31;;;15.87;37.74
64889;BME280;51386;53.082;8.816;2023-05-18T00:22:25;102792.25;;;15.83;37.29
64889;BME280;51386;53.082;8.816;2023-05-18T00:24:53;102789.25;;;15.78;37.65
64889;BME280;51386;53.082;8.816;2023-05-18T00:27:20;102790.72;;;15.73;37.59
64889;BME280;51386;53.082;8.816;2023-05-18T00:29:47;102798.63;;;15.65;38.13
64889;BME280;51386;53.082;8.816;2023-05-18T00:32:14;102788.78;;;15.57;37.56
64889;BME280;51386;53.082;8.816;2023-05-18T00:34:41;102793.88;;;15.50;38.00
64889;BME280;51386;53.082;8.816;2023-05-18T00:37:08;102797.69;;;15.48;38.17
64889;BME280;51386;53.082;8.816;2023-05-18T00:39:35;102788.56;;;15.50;38.04
64889;BME280;51386;53.082;8.816;2023-05-18T00:42:04;102789.25;;;15.52;38.20
64889;BME280;51386;53.082;8.816;2023-05-18T00:44:31;102794.25;;;15.55;38.28
64889;BME280;51386;53.082;8.816;2023-05-18T00:46:58;102792.44;;;15.56;37.82
64889;BME280;51386;53.082;8.816;2023-05-18T00:49:26;102799.06;;;15.52;37.97
64889;BME280;51386;53.082;8.816;2023-05-18T00:51:54;102790.72;;;15.47;38.04
64889;BME280;51386;53.082;8.816;2023-05-18T00:54:21;102792.72;;;15.45;38.20
64889;BME280;51386;53.082;8.816;2023-05-18T00:56:49;102791.97;;;15.43;38.24
64889;BME280;51386;53.082;8.816;2023-05-18T00:59:18;102793.28;;;15.39;38.27
64889;BME280;51386;53.082;8.816;2023-05-18T01:01:45;102787.00;;;15.40;38.55
64889;BME280;51386;53.082;8.816;2023-05-18T01:04:14;102778.19;;;15.39;38.40
64889;BME280;51386;53.082;8.816;2023-05-18T01:06:41;102786.66;;;15.43;38.68
64889;BME280;51386;53.082;8.816;2023-05-18T01:09:10;102788.75;;;15.49;38.58
64889;BME280;51386;53.082;8.816;2023-05-18T01:11:51;102786.47;;;15.54;38.20
64889;BME280;51386;53.082;8.816;2023-05-18T01:14:29;102789.13;;;15.54;38.08
64889;BME280;51386;53.082;8.816;2023-05-18T01:17:07;102788.44;;;15.52;37.98
64889;BME280;51386;53.082;8.816;2023-05-18T01:20:19;102795.69;;;15.50;38.26
64889;BME280;51386;53.082;8.816;2023-05-18T01:23:05;102796.41;;;15.52;38.57
64889;BME280;51386;53.082;8.816;2023-05-18T01:25:46;102790.75;;;15.55;38.28
64889;BME280;51386;53.082;8.816;2023-05-18T01:28:21;102794.47;;;15.62;37.72
64889;BME280;51386;53.082;8.816;2023-05-18T01:30:52;102792.16;;;15.67;38.33
64889;BME280;51386;53.082;8.816;2023-05-18T01:33:20;102793.53;;;15.71;38.31
64889;BME280;51386;53.082;8.816;2023-05-18T01:35:47;102790.25;;;15.77;38.14
64889;BME280;51386;53.082;8.816;2023-05-18T01:38:18;102794.91;;;15.83;37.72
64889;BME280;51386;53.082;8.816;2023-05-18T01:40:53;102797.25;;;15.86;38.03
64889;BME280;51386;53.082;8.816;2023-05-18T01:43:32;102798.75;;;15.89;37.97
64889;BME280;51386;53.082;8.816;2023-05-18T01:46:04;102800.94;;;15.93;38.03
64889;BME280;51386;53.082;8.816;2023-05-18T01:48:38;102797.97;;;15.96;37.70
64889;BME280;51386;53.082;8.816;2023-05-18T01:51:12;102794.66;;;15.94;37.52
64889;BME280;51386;53.082;8.816;2023-05-18T01:53:46;102792.00;;;15.94;37.60
64889;BME280;51386;53.082;8.816;2023-05-18T01:56:17;102798.28;;;15.93;37.80
64889;BME280;51386;53.082;8.816;2023-05-18T01:58:48;102799.06;;;15.86;37.50
64889;BME280;51386;53.082;8.816;2023-05-18T02:01:16;102796.88;;;15.81;37.86
64889;BME280;51386;53.082;8.816;2023-05-18T02:03:45;102799.88;;;15.78;38.15
64889;BME280;51386;53.082;8.816;2023-05-18T02:06:13;102790.25;;;15.77;38.01
64889;BME280;51386;53.082;8.816;2023-05-18T02:08:40;102803.22;;;15.80;38.14
64889;BME280;51386;53.082;8.816;2023-05-18T02:11:07;102789.75;;;15.82;38.24
64889;BME280;51386;53.082;8.816;2023-05-18T02:13:34;102802.72;;;15.85;37.83
64889;BME280;51386;53.082;8.816;2023-05-18T02:16:03;102795.59;;;15.85;37.98
64889;BME280;51386;53.082;8.816;2023-05-18T02:18:31;102792.78;;;15.87;38.44
64889;BME280;51386;53.082;8.816;2023-05-18T02:21:00;102801.59;;;15.87;38.07
64889;BME280;51386;53.082;8.816;2023-05-18T02:23:28;102796.94;;;15.89;38.06
64889;BME280;51386;53.082;8.816;2023-05-18T02:25:55;102797.97;;;15.96;37.72
64889;BME280;51386;53.082;8.816;2023-05-18T02:28:22;102795.69;;;16.01;37.87
64889;BME280;51386;53.082;8.816;2023-05-18T02:30:49;102796.03;;;16.06;37.53
64889;BME280;51386;53.082;8.816;2023-05-18T02:33:17;102796.69;;;16.08;37.45
64889;BME280;51386;53.082;8.816;2023-05-18T02:35:45;102799.19;;;16.10;37.28
64889;BME280;51386;53.082;8.816;2023-05-18T02:38:12;102800.34;;;16.07;36.97
64889;BME280;51386;53.082;8.816;2023-05-18T02:40:39;102799.66;;;16.05;37.25
64889;BME280;51386;53.082;8.816;2023-05-18T02:43:06;102804.00;;;16.06;37.50
64889;BME280;51386;53.082;8.816;2023-05-18T02:45:33;102797.00;;;16.05;37.50
64889;BME280;51386;53.082;8.816;2023-05-18T02:48:00;102800.69;;;16.04;37.59
64889;BME280;51386;53.082;8.816;2023-05-18T02:50:29;102795.38;;;16.04;37.44
64889;BME280;51386;53.082;8.816;2023-05-18T02:52:56;102794.53;;;16.04;37.49
64889;BME280;51386;53.082;8.816;2023-05-18T02:55:23;102797.69;;;16.07;37.44
64889;BME280;51386;53.082;8.816;2023-05-18T02:57:50;102799.34;;;16.08;37.24
64889;BME280;51386;53.082;8.816;2023-05-18T03:00:22;102795.38;;;16.04;36.92
64889;BME280;51386;53.082;8.816;2023-05-18T03:02:50;102799.66;;;15.97;37.11
64889;BME280;51386;53.082;8.816;2023-05-18T03:05:17;102796.94;;;15.89;37.44
64889;BME280;51386;53.082;8.816;2023-05-18T03:07:51;102798.41;;;15.84;37.51
64889;BME280;51386;53.082;8.816;2023-05-18T03:10:20;102797.91;;;15.80;37.45
64889;BME280;51386;53.082;8.816;2023-05-18T03:12:48;102794.56;;;15.78;37.69
64889;BME280;51386;53.082;8.816;2023-05-18T03:15:15;102799.19;;;15.76;37.90
64889;BME280;51386;53.082;8.816;2023-05-18T03:17:42;102800.03;;;15.77;37.78
64889;BME280;51386;53.082;8.816;2023-05-18T03:20:10;102807.84;;;15.78;37.88
64889;BME280;51386;53.082;8.816;2023-05-18T03:22:40;102805.88;;;15.80;37.89
64889;BME280;51386;53.082;8.816;2023-05-18T03:25:08;102807.38;;;15.83;37.69
64889;BME280;51386;53.082;8.816;2023-05-18T03:27:35;102803.41;;;15.87;37.54
64889;BME280;51386;53.082;8.816;2023-05-18T03:30:05;102799.78;;;15.88;37.29
64889;BME280;51386;53.082;8.816;2023-05-18T03:32:32;102809.84;;;15.84;37.48
64889;BME280;51386;53.082;8.816;2023-05-18T03:34:59;102812.69;;;15.83;37.38
64889;BME280;51386;53.082;8.816;2023-05-18T03:37:31;102817.31;;;15.81;37.67
64889;BME280;51386;53.082;8.816;2023-05-18T03:40:09;102809.97;;;15.75;37.38
64889;BME280;51386;53.082;8.816;2023-05-18T03:42:37;102809.47;;;15.71;37.53
64889;BME280;51386;53.082;8.816;2023-05-18T03:45:05;102806.44;;;15.66;37.80
64889;BME280;51386;53.082;8.816;2023-05-18T03:47:32;102819.06;;;15.64;37.98
64889;BME280;51386;53.082;8.816;2023-05-18T03:49:59;102810.25;;;15.64;37.92
64889;BME280;51386;53.082;8.816;2023-05-18T03:52:26;102811.91;;;15.65;37.98
64889;BME280;51386;53.082;8.816;2023-05-18T03:54:55;102818.72;;;15.67;37.84
64889;BME280;51386;53.082;8.816;2023-05-18T03:57:24;102816.06;;;15.67;37.58
64889;BME280;51386;53.082;8.816;2023-05-18T03:59:51;102818.41;;;15.70;37.61
64889;BME280;51386;53.082;8.816;2023-05-18T04:02:18;102816.44;;;15.72;37.39
64889;BME280;51386;53.082;8.816;2023-05-18T04:04:45;102821.44;;;15.75;37.79
64889;BME280;51386;53.082;8.816;2023-05-18T04:07:13;102819.44;;;15.77;37.81
64889;BME280;51386;53.082;8.816;2023-05-18T04:09:43;102823.13;;;15.84;37.85
64889;BME280;51386;53.082;8.816;2023-05-18T04:12:10;102818.50;;;15.86;37.63
64889;BME280;51386;53.082;8.816;2023-05-18T04:14:39;102831.09;;;15.84;37.44
64889;BME280;51386;53.082;8.816;2023-05-18T04:17:08;102834.75;;;15.83;37.48
64889;BME280;51386;53.082;8.816;2023-05-18T04:19:36;102831.63;;;15.88;37.71
64889;BME280;51386;53.082;8.816;2023-05-18T04:22:06;102825.16;;;15.90;37.67
64889;BME280;51386;53.082;8.816;2023-05-18T04:24:34;102831.84;;;15.94;37.49
64889;BME280;51386;53.082;8.816;2023-05-18T04:27:02;102838.84;;;16.03;37.55
64889;BME280;51386;53.082;8.816;2023-05-18T04:29:29;102834.22;;;16.05;36.96
64889;BME280;51386;53.082;8.816;2023-05-18T04:31:57;102850.69;;;16.09;37.22
64889;BME280;51386;53.082;8.816;2023-05-18T04:34:28;102845.88;;;16.12;37.69
64889;BME280;51386;53.082;8.816;2023-05-18T04:36:57;102856.00;;;16.17;37.21
64889;BME280;51386;53.082;8.816;2023-05-18T04:39:25;102858.19;;;16.21;37.07
64889;BME280;51386;53.082;8.816;2023-05-18T04:41:53;102856.38;;;16.22;36.91
64889;BME280;51386;53.082;8.816;2023-05-18T04:44:24;102859.69;;;16.24;37.21
64889;BME280;51386;53.082;8.816;2023-05-18T04:46:51;102857.56;;;16.27;36.68
64889;BME280;51386;53.082;8.816;2023-05-18T04:49:20;102866.22;;;16.30;36.86
64889;BME280;51386;53.082;8.816;2023-05-18T04:51:48;102864.88;;;16.34;36.80
64889;BME280;51386;53.082;8.816;2023-05-18T04:54:15;102865.56;;;16.36;36.96
64889;BME280;51386;53.082;8.816;2023-05-18T04:56:42;102861.59;;;16.40;36.83
64889;BME280;51386;53.082;8.816;2023-05-18T04:59:09;102860.28;;;16.44;36.73
64889;BME280;51386;53.082;8.816;2023-05-18T05:01:36;102864.13;;;16.49;36.13
64889;BME280;51386;53.082;8.816;2023-05-18T05:04:03;102865.69;;;16.52;35.66
64889;BME280;51386;53.082;8.816;2023-05-18T05:06:33;102865.50;;;16.53;35.28
64889;BME280;51386;53.082;8.816;2023-05-18T05:09:00;102865.50;;;16.53;35.33
64889;BME280;51386;53.082;8.816;2023-05-18T05:11:27;102868.84;;;16.55;35.53
64889;BME280;51386;53.082;8.816;2023-05-18T05:13:54;102874.66;;;16.59;34.84
64889;BME280;51386;53.082;8.816;2023-05-18T05:16:21;102872.31;;;16.56;35.19
64889;BME280;51386;53.082;8.816;2023-05-18T05:18:48;102868.53;;;16.58;35.44
64889;BME280;51386;53.082;8.816;2023-05-18T05:21:15;102871.66;;;16.62;34.98
64889;BME280;51386;53.082;8.816;2023-05-18T05:23:43;102873.34;;;16.63;34.75
64889;BME280;51386;53.082;8.816;2023-05-18T05:26:11;102873.84;;;16.66;34.94
64889;BME280;51386;53.082;8.816;2023-05-18T05:28:38;102878.72;;;16.71;34.59
64889;BME280;51386;53.082;8.816;2023-05-18T05:31:05;102875.38;;;16.77;34.82
64889;BME280;51386;53.082;8.816;2023-05-18T05:33:32;102881.72;;;16.84;34.75
64889;BME280;51386;53.082;8.816;2023-05-18T05:35:59;102882.06;;;16.89;34.60
64889;BME280;51386;53.082;8.816;2023-05-18T05:38:26;102892.03;;;16.95;34.32
64889;BME280;51386;53.082;8.816;2023-05-18T05:40:54;102887.25;;;16.99;34.21
64889;BME280;51386;53.082;8.816;2023-05-18T05:43:21;102888.44;;;17.04;34.12
64889;BME280;51386;53.082;8.816;2023-05-18T05:45:49;102887.09;;;17.08;34.27
64889;BME280;51386;53.082;8.816;2023-05-18T05:48:16;102887.25;;;17.15;34.23
64889;BME280;51386;53.082;8.816;2023-05-18T05:50:43;102883.78;;;17.22;33.84
64889;BME280;51386;53.082;8.816;2023-05-18T05:53:10;102890.44;;;17.26;33.94
64889;BME280;51386;53.082;8.816;2023-05-18T05:55:37;102881.28;;;17.29;33.63
64889;BME280;51386;53.082;8.816;2023-05-18T05:58:08;102889.09;;;17.22;33.86
64889;BME280;51386;53.082;8.816;2023-05-18T06:00:36;102893.75;;;17.12;33.55
64889;BME280;51386;53.082;8.816;2023-05-18T06:03:03;102891.41;;;17.01;33.74
64889;BME280;51386;53.082;8.816;2023-05-18T06:05:30;102893.06;;;17.02;34.00
64889;BME280;51386;53.082;8.816;2023-05-18T06:07:57;102889.41;;;17.03;33.56
64889;BME280;51386;53.082;8.816;2023-05-18T06:10:24;102893.75;;;17.04;33.39
64889;BME280;51386;53.082;8.816;2023-05-18T06:12:51;102897.22;;;17.05;33.80
64889;BME280;51386;53.082;8.816;2023-05-18T06:15:20;102896.91;;;17.08;33.65
64889;BME280;51386;53.082;8.816;2023-05-18T06:17:47;102903.53;;;17.12;33.49
64889;BME280;51386;53.082;8.816;2023-05-18T06:20:14;102898.41;;;17.18;33.14
64889;BME280;51386;53.082;8.816;2023-05-18T06:22:41;102901.44;;;17.23;33.07
64889;BME280;51386;53.082;8.816;2023-05-18T06:25:09;102897.44;;;17.27;33.19
64889;BME280;51386;53.082;8.816;2023-05-18T06:27:37;102892.78;;;17.37;33.11
64889;BME280;51386;53.082;8.816;2023-05-18T06:30:06;102895.09;;;17.48;32.85
64889;BME280;51386;53.082;8.816;2023-05-18T06:32:35;102901.47;;;17.55;32.77
64889;BME280;51386;53.082;8.816;2023-05-18T06:35:04;102910.78;;;17.68;32.74
64889;BME280;51386;53.082;8.816;2023-05-18T06:37:32;102908.59;;;17.79;32.51
64889;BME280;51386;53.082;8.816;2023-05-18T06:39:59;102908.94;;;17.92;32.54
64889;BME280;51386;53.082;8.816;2023-05-18T06:42:26;102907.41;;;17.98;32.17
64889;BME280;51386;53.082;8.816;2023-05-18T06:44:53;102914.22;;;18.08;32.23
64889;BME280;51386;53.082;8.816;2023-05-18T06:47:20;102917.34;;;18.20;32.08
64889;BME280;51386;53.082;8.816;2023-05-18T06:49:48;102918.00;;;18.22;31.72
64889;BME280;51386;53.082;8.816;2023-05-18T06:52:15;102915.03;;;18.17;31.76
64889;BME280;51386;53.082;8.816;2023-05-18T06:54:42;102919.03;;;18.13;32.01
64889;BME280;51386;53.082;8.816;2023-05-18T06:57:09;102916.38;;;18.13;31.84
64889;BME280;51386;53.082;8.816;2023-05-18T06:59:36;102923.00;;;18.17;32.20
64889;BME280;51386;53.082;8.816;2023-05-18T07:02:03;102922.34;;;18.23;31.99
64889;BME280;51386;53.082;8.816;2023-05-18T07:04:30;102926.97;;;18.29;31.76
64889;BME280;51386;53.082;8.816;2023-05-18T07:06:59;102911.81;;;18.30;31.83
64889;BME280;51386;53.082;8.816;2023-05-18T07:09:26;102924.13;;;18.31;31.71
64889;BME280;51386;53.082;8.816;2023-05-18T07:11:53;102921.31;;;18.32;31.67
64889;BME280;51386;53.082;8.816;2023-05-18T07:14:20;102919.63;;;18.31;31.82
64889;BME280;51386;53.082;8.816;2023-05-18T07:16:47;102919.63;;;18.31;31.67
64889;BME280;51386;53.082;8.816;2023-05-18T07:19:14;102918.34;;;18.27;31.62
64889;BME280;51386;53.082;8.816;2023-05-18T07:21:41;102910.66;;;18.24;31.65
64889;BME280;51386;53.082;8.816;2023-05-18T07:24:10;102919.97;;;18.28;31.87
64889;BME280;51386;53.082;8.816;2023-05-18T07:26:37;102920.81;;;18.37;31.88
64889;BME280;51386;53.082;8.816;2023-05-18T07:29:04;102921.78;;;18.52;31.96
64889;BME280;51386;53.082;8.816;2023-05-18T07:31:30;102915.88;;;18.64;31.49
64889;BME280;51386;53.082;8.816;2023-05-18T07:33:58;102916.84;;;18.71;31.15
64889;BME280;51386;53.082;8.816;2023-05-18T07:36:25;102919.81;;;18.76;31.05
64889;BME280;51386;53.082;8.816;2023-05-18T07:38:54;102919.94;;;18.83;31.27
64889;BME280;51386;53.082;8.816;2023-05-18T07:41:23;102917.72;;;18.94;31.01
64889;BME280;51386;53.082;8.816;2023-05-18T07:43:51;102922.03;;;19.04;31.00
64889;BME280;51386;53.082;8.816;2023-05-18T07:46:18;102919.66;;;19.09;30.79
64889;BME280;51386;53.082;8.816;2023-05-18T07:48:45;102916.59;;;19.12;30.57
64889;BME280;51386;53.082;8.816;2023-05-18T07:51:12;102910.63;;;19.10;30.56
64889;BME280;51386;53.082;8.816;2023-05-18T07:53:39;102909.66;;;19.03;30.47
64889;BME280;51386;53.082;8.816;2023-05-18T07:56:08;102911.69;;;19.01;30.72
64889;BME280;51386;53.082;8.816;2023-05-18T07:58:37;102917.97;;;19.08;30.74
64889;BME280;51386;53.082;8.816;2023-05-18T08:01:04;102913.63;;;19.07;30.65
64889;BME280;51386;53.082;8.816;2023-05-18T08:03:31;102915.66;;;19.05;30.52
64889;BME280;51386;53.082;8.816;2023-05-18T08:05:58;102925.34;;;19.06;30.58
64889;BME280;51386;53.082;8.816;2023-05-18T08:08:26;102918.22;;;19.21;30.71
64889;BME280;51386;53.082;8.816;2023-05-18T08:10:54;102925.78;;;19.40;30.46
64889;BME280;51386;53.082;8.816;2023-05-18T08:13:21;102918.69;;;19.70;29.67
64889;BME280;51386;53.082;8.816;2023-05-18T08:15:49;102917.00;;;19.91;29.80
64889;BME280;51386;53.082;8.816;2023-05-18T08:18:36;102922.16;;;20.07;29.35
64889;BME280;51386;53.082;8.816;2023-05-18T08:21:03;102923.19;;;20.21;29.18
64889;BME280;51386;53.082;8.816;2023-05-18T08:23:33;102926.16;;;20.26;29.32
64889;BME280;51386;53.082;8.816;2023-05-18T08:26:00;102927.66;;;20.29;29.42
64889;BME280;51386;53.082;8.816;2023-05-18T08:28:29;102927.38;;;20.38;28.72
64889;BME280;51386;53.082;8.816;2023-05-18T08:30:57;102915.00;;;20.87;28.21
64889;BME280;51386;53.082;8.816;2023-05-18T08:33:24;102919.63;;;21.29;28.09
64889;BME280;51386;53.082;8.816;2023-05-18T08:35:53;102913.72;;;21.62;27.39
64889;BME280;51386;53.082;8.816;2023-05-18T08:38:20;102918.25;;;21.61;27.58
64889;BME280;51386;53.082;8.816;2023-05-18T08:40:57;102919.47;;;21.58;27.49
64889;BME280;51386;53.082;8.816;2023-05-18T08:43:29;102924.41;;;21.55;27.60
64889;BME280;51386;53.082;8.816;2023-05-18T08:46:06;102926.25;;;22.03;27.57
64889;BME280;51386;53.082;8.816;2023-05-18T08:48:36;102927.06;;;23.46;26.07
64889;BME280;51386;53.082;8.816;2023-05-18T08:51:07;102924.06;;;24.33;24.26
64889;BME280;51386;53.082;8.816;2023-05-18T08:53:36;102924.66;;;24.35;23.75
64889;BME280;51386;53.082;8.816;2023-05-18T08:56:05;102924.53;;;23.90;24.35
64889;BME280;51386;53.082;8.816;2023-05-18T08:58:35;102916.28;;;23.52;24.69
64889;BME280;51386;53.082;8.816;2023-05-18T09:01:08;102922.06;;;23.43;24.72
64889;BME280;51386;53.082;8.816;2023-05-18T09:03:36;102920.16;;;23.30;25.02
64889;BME280;51386;53.082;8.816;2023-05-18T09:06:05;102919.53;;;23.22;25.04
64889;BME280;51386;53.082;8.816;2023-05-18T09:08:33;102926.22;;;23.39;25.09
64889;BME280;51386;53.082;8.816;2023-05-18T09:11:01;102912.56;;;23.73;24.70
64889;BME280;51386;53.082;8.816;2023-05-18T09:13:29;102908.59;;;23.82;24.67
64889;BME280;51386;53.082;8.816;2023-05-18T09:15:56;102909.66;;;23.81;24.64
64889;BME280;51386;53.082;8.816;2023-05-18T09:18:25;102912.34;;;23.81;24.53
64889;BME280;51386;53.082;8.816;2023-05-18T09:20:54;102903.47;;;23.68;24.49
64889;BME280;51386;53.082;8.816;2023-05-18T09:23:22;102903.88;;;23.51;24.79
64889;BME280;51386;53.082;8.816;2023-05-18T09:25:51;102901.81;;;23.67;24.89
64889;BME280;51386;53.082;8.816;2023-05-18T09:28:26;102900.03;;;24.38;24.25
64889;BME280;51386;53.082;8.816;2023-05-18T09:30:56;102901.31;;;26.09;23.41
64889;BME280;51386;53.082;8.816;2023-05-18T09:33:25;102891.50;;;27.64;21.40
64889;BME280;51386;53.082;8.816;2023-05-18T09:35:58;102893.16;;;27.99;20.55
64889;BME280;51386;53.082;8.816;2023-05-18T09:38:26;102896.31;;;27.85;20.50
64889;BME280;51386;53.082;8.816;2023-05-18T09:40:54;102885.84;;;27.88;20.60
64889;BME280;51386;53.082;8.816;2023-05-18T09:43:21;102893.94;;;27.65;20.57
64889;BME280;51386;53.082;8.816;2023-05-18T09:45:48;102886.63;;;27.89;20.33
64889;BME280;51386;53.082;8.816;2023-05-18T09:48:16;102883.66;;;28.93;19.81
64889;BME280;51386;53.082;8.816;2023-05-18T09:50:45;102884.69;;;30.08;18.18
64889;BME280;51386;53.082;8.816;2023-05-18T09:53:13;102880.28;;;31.31;17.52
64889;BME280;51386;53.082;8.816;2023-05-18T09:55:46;102875.81;;;32.50;16.83
64889;BME280;51386;53.082;8.816;2023-05-18T09:58:13;102874.53;;;33.28;16.18
64889;BME280;51386;53.082;8.816;2023-05-18T10:00:43;102877.06;;;34.19;15.57
64889;BME280;51386;53.082;8.816;2023-05-18T10:03:18;102873.09;;;33.81;15.06
64889;BME280;51386;53.082;8.816;2023-05-18T10:05:47;102873.41;;;32.79;15.39
64889;BME280;51386;53.082;8.816;2023-05-18T10:08:15;102870.63;;;31.92;16.55
64889;BME280;51386;53.082;8.816;2023-05-18T10:10:44;102876.16;;;30.92;17.47
64889;BME280;51386;53.082;8.816;2023-05-18T10:13:13;102876.53;;;30.08;17.67
64889;BME280;51386;53.082;8.816;2023-05-18T10:15:46;102871.50;;;29.79;17.90
64889;BME280;51386;53.082;8.816;2023-05-18T10:18:20;102869.97;;;30.26;17.46
64889;BME280;51386;53.082;8.816;2023-05-18T10:20:51;102867.72;;;31.25;17.02
64889;BME280;51386;53.082;8.816;2023-05-18T10:23:21;102859.84;;;32.12;16.53
64889;BME280;51386;53.082;8.816;2023-05-18T10:25:50;102864.50;;;32.12;15.95
64889;BME280;51386;53.082;8.816;2023-05-18T10:28:20;102875.06;;;31.56;16.21
64889;BME280;51386;53.082;8.816;2023-05-18T10:30:54;102872.94;;;30.95;16.77
64889;BME280;51386;53.082;8.816;2023-05-18T10:33:24;102868.75;;;30.60;17.09
64889;BME280;51386;53.082;8.816;2023-05-18T10:35:57;102868.34;;;30.73;16.57
64889;BME280;51386;53.082;8.816;2023-05-18T10:38:26;102869.16;;;31.01;16.68
64889;BME280;51386;53.082;8.816;2023-05-18T10:40:55;102863.06;;;31.57;17.01
64889;BME280;51386;53.082;8.816;2023-05-18T10:43:24;102859.09;;;32.32;15.69
64889;BME280;51386;53.082;8.816;2023-05-18T10:45:56;102869.44;;;32.25;15.99
64889;BME280;51386;53.082;8.816;2023-05-18T10:48:25;102865.44;;;31.85;16.42
64889;BME280;51386;53.082;8.816;2023-05-18T10:50:55;102865.19;;;31.45;17.09
64889;BME280;51386;53.082;8.816;2023-05-18T10:53:26;102868.91;;;31.39;16.23
64889;BME280;51386;53.082;8.816;2023-05-18T10:55:55;102860.63;;;31.56;16.71
64889;BME280;51386;53.082;8.816;2023-05-18T10:58:24;102861.63;;;31.13;17.18
64889;BME280;51386;53.082;8.816;2023-05-18T11:00:57;102860.94;;;30.42;17.16
64889;BME280;51386;53.082;8.816;2023-05-18T11:03:26;102860.28;;;29.92;17.99
64889;BME280;51386;53.082;8.816;2023-05-18T11:06:05;102862.31;;;29.46;18.67
64889;BME280;51386;53.082;8.816;2023-05-18T11:08:42;102854.06;;;29.08;18.94
64889;BME280;51386;53.082;8.816;2023-05-18T11:11:10;102862.84;;;28.82;19.26
64889;BME280;51386;53.082;8.816;2023-05-18T11:13:43;102860.47;;;28.86;19.22
64889;BME280;51386;53.082;8.816;2023-05-18T11:16:11;102857.84;;;28.74;19.28
64889;BME280;51386;53.082;8.816;2023-05-18T11:18:44;102861.22;;;28.41;19.35
64889;BME280;51386;53.082;8.816;2023-05-18T11:21:20;102852.03;;;28.14;19.73
64889;BME280;51386;53.082;8.816;2023-05-18T11:24:18;102845.09;;;27.83;20.37
64889;BME280;51386;53.082;8.816;2023-05-18T11:26:47;102853.34;;;27.42;20.10
64889;BME280;51386;53.082;8.816;2023-05-18T11:29:17;102855.47;;;26.87;20.54
64889;BME280;51386;53.082;8.816;2023-05-18T11:31:45;102854.59;;;26.45;21.15
64889;BME280;51386;53.082;8.816;2023-05-18T11:34:49;102852.31;;;26.06;21.31
64889;BME280;51386;53.082;8.816;2023-05-18T11:37:46;102841.13;;;25.66;22.37
64889;BME280;51386;53.082;8.816;2023-05-18T11:40:46;102845.28;;;25.19;22.94
64889;BME280;51386;53.082;8.816;2023-05-18T11:43:20;102849.94;;;25.06;23.00
64889;BME280;51386;53.082;8.816;2023-05-18T11:45:52;102836.31;;;25.01;23.24
64889;BME280;51386;53.082;8.816;2023-05-18T11:48:22;102836.38;;;25.43;22.57
64889;BME280;51386;53.082;8.816;2023-05-18T11:50:52;102832.38;;;26.25;21.99
64889;BME280;51386;53.082;8.816;2023-05-18T11:53:23;102828.69;;;26.38;21.77
64889;BME280;51386;53.082;8.816;2023-05-18T11:55:54;102825.63;;;25.80;21.93
64889;BME280;51386;53.082;8.816;2023-05-18T11:58:24;102829.41;;;25.29;22.82
64889;BME280;51386;53.082;8.816;2023-05-18T12:00:53;102820.06;;;25.07;22.82
64889;BME280;51386;53.082;8.816;2023-05-18T12:03:22;102824.47;;;25.02;23.26
64889;BME280;51386;53.082;8.816;2023-05-18T12:05:51;102831.28;;;25.04;23.44
64889;BME280;51386;53.082;8.816;2023-05-18T12:08:19;102827.09;;;25.08;23.52
64889;BME280;51386;53.082;8.816;2023-05-18T12:10:48;102821.44;;;25.16;22.97
64889;BME280;51386;53.082;8.816;2023-05-18T12:13:17;102811.53;;;25.35;23.63
64889;BME280;51386;53.082;8.816;2023-05-18T12:15:45;102813.84;;;25.56;23.05
64889;BME280;51386;53.082;8.816;2023-05-18T12:18:12;102818.28;;;25.69;22.74
64889;BME280;51386;53.082;8.816;2023-05-18T12:20:39;102809.88;;;25.59;22.69
64889;BME280;51386;53.082;8.816;2023-05-18T12:23:06;102810.63;;;25.47;23.74
64889;BME280;51386;53.082;8.816;2023-05-18T12:25:35;102826.38;;;25.69;23.15
64889;BME280;51386;53.082;8.816;2023-05-18T12:28:02;102813.19;;;26.15;22.94
64889;BME280;51386;53.082;8.816;2023-05-18T12:30:31;102813.13;;;26.51;22.13
64889;BME280;51386;53.082;8.816;2023-05-18T12:33:02;102804.50;;;26.72;21.89
64889;BME280;51386;53.082;8.816;2023-05-18T12:35:30;102811.56;;;26.44;21.93
64889;BME280;51386;53.082;8.816;2023-05-18T12:37:59;102807.94;;;26.20;22.60
64889;BME280;51386;53.082;8.816;2023-05-18T12:40:34;102804.72;;;25.75;22.24
64889;BME280;51386;53.082;8.816;2023-05-18T12:43:05;102808.22;;;25.33;22.83
64889;BME280;51386;53.082;8.816;2023-05-18T12:45:34;102803.00;;;25.13;23.82
64889;BME280;51386;53.082;8.816;2023-05-18T12:48:05;102797.69;;;25.31;23.81
64889;BME280;51386;53.082;8.816;2023-05-18T12:50:32;102795.66;;;25.70;23.87
64889;BME280;51386;53.082;8.816;2023-05-18T12:53:00;102800.00;;;26.07;23.45
64889;BME280;51386;53.082;8.816;2023-05-18T12:55:29;102796.78;;;26.46;22.68
64889;BME280;51386;53.082;8.816;2023-05-18T12:58:02;102785.94;;;26.64;22.75
64889;BME280;51386;53.082;8.816;2023-05-18T13:00:35;102785.41;;;26.56;22.22